Istanbul, Turki

04:30 PM EEST on Oktober 21, 2014 (GMT +0300)
Ataturk | Change Station
CLOSE
Current Station
Airport
Location: Istanbul,
Elevation: 121 ft
Nearby Weather Stations

Elev 121 ft 40.98 °N, 28.81 °E | Updated 40 minutes ago

Clear
Cerah
64 °F
Feels Like 64 °F
N
7
Angin Variable Angin from Dari Selatan ke Baratdaya

Siang Ini
High -- | Low -- °F
--% Chance of Precip.
Yesterday
High -- | Low -- °F
Precip. -- Inch
7:22 AM 6:15 PM
Waning Crescent, 5% visible
Tekanan 29.92 Inch
Jarak Pandang -9999.0 Mil
Awan
Titik Embun 45 °F
Kelembaban 49%
Rainfall 0.00 Inch
Snow Depth Not available.
UV Not available.
Pollen Not available.
Air Quality Not available.
Flu Activity Not available.
METAR LTBA 211250Z 21006KT 180V250 CAVOK 18/07 Q1013 NOSIG RMK RWY17L VRB06KT RWY05 22006KT 190V250 RWY23 22007KT

More Conditions Fewer Conditions

Tekanan 29.92 Inch
Jarak Pandang -9999.0 Mil
Awan
Titik Embun 45 °F
Kelembaban 49%
Rainfall 0.00 Inch
Snow Depth Not available.
UV Not available.
Pollen Not available.
Air Quality Not available.
Flu Activity Not available.
METAR LTBA 211250Z 21006KT 180V250 CAVOK 18/07 Q1013 NOSIG RMK RWY17L VRB06KT RWY05 22006KT 190V250 RWY23 22007KT

More Conditions Fewer Conditions

10-Day Weather Forecast

Almanac

Astronomi

Oct. 21, 2014 Rise Set
Actual Time 7:22 AM EEST 6:15 PM EEST
Civil Twilight 6:54 AM EEST 6:43 PM EEST
Nautical Twilight 6:22 AM EEST 7:15 PM EEST
Astronomical Twilight 5:50 AM EEST 7:47 PM EEST
Moon 4:47 AM EEST 5:00 PM EEST
Length Of Visible Light 11h 49m
Lama Satu Hari
10h 53m
Tomorrow will be 2m 34s shorter.
Waning Crescent, 5% of the Moon is Illuminated
Siang Ini
Waning Crescent
Oct 23
New
Oct 30
Triwulan Pertama
Nov 6
Bulan Purnama
Nov 14
Kuartil Terakhir

Yesterday's Extremes

Country Highs Country Lows

Community

WunderPhotos

Upload Photos

1,763,662 photos uploaded!

Nearby

Snow Depth

Not available.

Earthquake Activity

City Distance Mag. Time & Date
No recent earthquake activity has been reported nearby.
Minimum magnitude displayed is 2.5.

Coastal Water Temperatures

Lokasi Temperatur
No Stations Reporting

Nearby Weather Stations